Time;durP1;ratioP1;P1;durP2;ratioP2;P2;SDS_P1;SDS_P2;PMS_P1;PMS_P2;Temp;Humidity;BMP_temperature;BMP_pressure;BME280_temperature;BME280_humidity;BME280_pressure;Samples;Min_cycle;Max_cycle;Signal;HPM_P1;HPM_P2
2023/12/03 00:00:39;;;;;;;53.35;19.27;;;;;;;;;;4997376;28;20041;-86
2023/12/03 00:03:24;;;;;;;63.95;21.38;;;;;;;;;;5011315;28;20169;-86
2023/12/03 00:06:09;;;;;;;60.28;20.45;;;;;;;;;;5011480;28;20501;-86
2023/12/03 00:08:54;;;;;;;56.75;21.02;;;;;;;;;;5000059;28;20052;-86
2023/12/03 00:11:38;;;;;;;59.38;22.15;;;;;;;;;;5011586;28;20083;-86
2023/12/03 00:14:23;;;;;;;55.60;22.52;;;;;;;;;;5010441;28;20053;-86
2023/12/03 00:17:08;;;;;;;60.10;22.35;;;;;;;;;;5011650;28;20112;-85
2023/12/03 00:19:52;;;;;;;61.45;21.73;;;;;;;;;;5011793;28;20040;-86
2023/12/03 00:22:37;;;;;;;59.35;21.85;;;;;;;;;;4997026;28;20041;-86
2023/12/03 00:25:22;;;;;;;48.47;19.83;;;;;;;;;;5010348;28;20167;-86
2023/12/03 00:28:06;;;;;;;53.28;20.75;;;;;;;;;;5012280;28;20068;-85
2023/12/03 00:30:51;;;;;;;55.40;20.83;;;;;;;;;;5011736;28;20084;-86
2023/12/03 00:33:35;;;;;;;47.88;20.73;;;;;;;;;;5012022;28;20196;-86
2023/12/03 00:36:20;;;;;;;46.22;20.48;;;;;;;;;;5011505;28;20552;-85
2023/12/03 00:39:06;;;;;;;46.95;19.80;;;;;;;;;;5010766;28;20100;-85
2023/12/03 00:41:50;;;;;;;43.25;18.77;;;;;;;;;;5010964;28;20041;-85
2023/12/03 00:44:35;;;;;;;42.08;19.38;;;;;;;;;;5010555;28;20040;-87
2023/12/03 00:47:19;;;;;;;39.40;18.65;;;;;;;;;;5010188;28;20120;-86
2023/12/03 00:50:04;;;;;;;42.45;17.30;;;;;;;;;;5013429;28;20096;-86
2023/12/03 00:52:49;;;;;;;43.35;16.95;;;;;;;;;;5015294;28;20113;-86
2023/12/03 00:55:34;;;;;;;41.70;17.50;;;;;;;;;;5013729;28;20137;-85
2023/12/03 00:58:19;;;;;;;38.40;16.10;;;;;;;;;;5014695;28;20088;-86
2023/12/03 01:01:04;;;;;;;35.90;16.02;;;;;;;;;;5015166;28;20041;-85
2023/12/03 01:03:48;;;;;;;34.78;15.95;;;;;;;;;;5015081;28;20401;-86
2023/12/03 01:06:33;;;;;;;32.28;14.73;;;;;;;;;;5013444;28;20033;-86
2023/12/03 01:09:18;;;;;;;32.70;15.73;;;;;;;;;;5014613;28;20108;-86
2023/12/03 01:12:02;;;;;;;32.25;15.00;;;;;;;;;;5014045;28;20032;-87
2023/12/03 01:14:46;;;;;;;37.35;15.88;;;;;;;;;;5000096;28;20449;-86
2023/12/03 01:17:31;;;;;;;28.55;14.43;;;;;;;;;;5014545;28;20129;-85
2023/12/03 01:20:16;;;;;;;32.15;13.82;;;;;;;;;;4999373;28;20045;-85
2023/12/03 01:23:01;;;;;;;33.97;14.98;;;;;;;;;;5004143;28;20099;-87
2023/12/03 01:25:45;;;;;;;30.75;14.40;;;;;;;;;;5014643;28;20040;-86
2023/12/03 01:28:30;;;;;;;30.52;14.18;;;;;;;;;;5013221;28;20045;-86
2023/12/03 01:31:14;;;;;;;31.83;14.13;;;;;;;;;;5014645;28;20096;-85
2023/12/03 01:33:59;;;;;;;32.75;14.60;;;;;;;;;;5013494;28;20049;-87
2023/12/03 01:36:44;;;;;;;30.60;13.75;;;;;;;;;;5014624;28;20100;-87
2023/12/03 01:39:29;;;;;;;26.85;13.05;;;;;;;;;;5013867;28;20091;-86
2023/12/03 01:42:13;;;;;;;26.98;12.73;;;;;;;;;;5013617;28;20049;-86
2023/12/03 01:44:58;;;;;;;35.28;14.23;;;;;;;;;;5014477;28;20092;-86
2023/12/03 01:47:42;;;;;;;27.70;13.60;;;;;;;;;;5012740;28;20709;-86
2023/12/03 01:50:27;;;;;;;27.10;12.50;;;;;;;;;;4999081;28;20052;-86
2023/12/03 01:53:12;;;;;;;26.60;12.15;;;;;;;;;;5014212;28;20044;-86
2023/12/03 01:55:56;;;;;;;27.10;13.43;;;;;;;;;;5014195;28;20040;-86
2023/12/03 01:58:41;;;;;;;24.85;12.50;;;;;;;;;;5013723;28;20045;-86
2023/12/03 02:01:25;;;;;;;27.08;13.65;;;;;;;;;;5011931;28;20061;-86
2023/12/03 02:04:10;;;;;;;27.05;12.43;;;;;;;;;;5014137;28;20117;-86
2023/12/03 02:06:55;;;;;;;26.77;13.48;;;;;;;;;;5014103;28;20100;-87
2023/12/03 02:09:40;;;;;;;26.80;14.10;;;;;;;;;;5012358;28;20049;-86
2023/12/03 02:12:24;;;;;;;27.23;13.63;;;;;;;;;;5013507;28;20048;-86
2023/12/03 02:15:09;;;;;;;32.00;14.27;;;;;;;;;;5013740;28;20877;-86
2023/12/03 02:17:54;;;;;;;30.08;14.13;;;;;;;;;;5012990;28;20056;-86
2023/12/03 02:20:38;;;;;;;23.88;12.85;;;;;;;;;;5008993;28;20490;-86
2023/12/03 02:23:23;;;;;;;25.05;13.98;;;;;;;;;;4997781;28;20049;-85
2023/12/03 02:26:07;;;;;;;90.55;29.20;;;;;;;;;;4996363;28;20430;-86
2023/12/03 02:28:52;;;;;;;180.90;52.28;;;;;;;;;;5013619;28;20096;-86
2023/12/03 02:31:36;;;;;;;323.50;84.60;;;;;;;;;;5003249;28;20045;-86
2023/12/03 02:34:21;;;;;;;417.67;100.90;;;;;;;;;;5010951;28;20041;-86
2023/12/03 02:37:05;;;;;;;555.90;128.60;;;;;;;;;;5012675;28;20053;-86
2023/12/03 02:39:50;;;;;;;818.70;166.48;;;;;;;;;;4993879;28;20042;-86
2023/12/03 02:42:34;;;;;;;857.60;166.85;;;;;;;;;;5007730;28;20053;-86
2023/12/03 02:45:19;;;;;;;826.75;163.88;;;;;;;;;;5013403;28;20125;-85
2023/12/03 02:48:04;;;;;;;1521.18;224.60;;;;;;;;;;5012612;28;20088;-86
2023/12/03 02:50:49;;;;;;;1295.60;205.82;;;;;;;;;;5011815;28;20559;-86
2023/12/03 02:53:36;;;;;;;1334.93;212.18;;;;;;;;;;5012809;28;20137;-85
2023/12/03 02:56:20;;;;;;;1264.10;217.90;;;;;;;;;;5010060;28;20037;-86
2023/12/03 02:59:05;;;;;;;864.20;162.75;;;;;;;;;;5002612;28;20103;-86
2023/12/03 03:01:49;;;;;;;555.97;117.55;;;;;;;;;;5012274;28;20083;-85
2023/12/03 03:04:34;;;;;;;468.27;89.13;;;;;;;;;;5011539;28;20041;-86
2023/12/03 03:07:18;;;;;;;538.42;97.45;;;;;;;;;;5011933;28;20544;-86
2023/12/03 03:10:03;;;;;;;646.85;102.30;;;;;;;;;;5012722;28;20496;-86
2023/12/03 03:12:47;;;;;;;446.17;72.25;;;;;;;;;;5011328;28;20049;-86
2023/12/03 03:15:32;;;;;;;374.05;53.13;;;;;;;;;;5012116;28;20054;-85
2023/12/03 03:18:16;;;;;;;202.30;35.22;;;;;;;;;;5012537;28;20064;-85
2023/12/03 03:21:04;;;;;;;212.20;28.98;;;;;;;;;;4992196;28;20506;-85
2023/12/03 03:23:49;;;;;;;212.18;26.13;;;;;;;;;;5009819;28;20099;-85
2023/12/03 03:26:33;;;;;;;266.52;32.28;;;;;;;;;;5012080;28;20077;-86
2023/12/03 03:29:18;;;;;;;226.30;27.33;;;;;;;;;;5011616;28;20053;-86
2023/12/03 03:32:03;;;;;;;231.85;30.35;;;;;;;;;;4998316;28;20701;-86
2023/12/03 03:34:47;;;;;;;274.60;34.70;;;;;;;;;;5011958;28;20056;-86
2023/12/03 03:37:32;;;;;;;164.55;26.27;;;;;;;;;;5010787;28;20080;-84
2023/12/03 03:40:16;;;;;;;219.23;27.48;;;;;;;;;;5012247;28;20120;-85
2023/12/03 03:43:01;;;;;;;164.45;23.05;;;;;;;;;;5012303;28;20087;-86
2023/12/03 03:45:45;;;;;;;275.40;30.50;;;;;;;;;;5010496;28;20048;-85
2023/12/03 03:48:30;;;;;;;179.50;26.73;;;;;;;;;;5011858;28;20064;-85
2023/12/03 03:51:15;;;;;;;319.08;36.55;;;;;;;;;;5012005;28;20504;-86
2023/12/03 03:53:59;;;;;;;251.75;31.55;;;;;;;;;;5011183;28;20049;-85
2023/12/03 03:56:47;;;;;;;205.98;28.17;;;;;;;;;;5011589;28;20410;-86
2023/12/03 03:59:32;;;;;;;286.10;34.15;;;;;;;;;;5011871;28;20083;-84
2023/12/03 04:02:16;;;;;;;473.25;48.88;;;;;;;;;;5012023;28;20048;-86
2023/12/03 04:05:01;;;;;;;424.40;42.70;;;;;;;;;;5011938;28;20068;-86
2023/12/03 04:07:46;;;;;;;355.83;36.42;;;;;;;;;;5011232;28;20053;-85
2023/12/03 04:10:31;;;;;;;381.35;39.45;;;;;;;;;;5010949;28;20048;-86
2023/12/03 04:13:15;;;;;;;375.30;40.50;;;;;;;;;;5011700;28;20045;-86
2023/12/03 04:16:00;;;;;;;247.90;29.42;;;;;;;;;;5010591;28;20049;-86
2023/12/03 04:18:44;;;;;;;239.80;30.98;;;;;;;;;;4990767;28;20045;-86
2023/12/03 04:21:29;;;;;;;199.45;29.70;;;;;;;;;;5006145;28;20096;-85
2023/12/03 04:24:14;;;;;;;405.48;42.80;;;;;;;;;;5011402;28;20120;-86
2023/12/03 04:26:58;;;;;;;456.63;44.53;;;;;;;;;;5010901;28;20045;-86
2023/12/03 04:29:43;;;;;;;339.17;38.17;;;;;;;;;;5011329;28;20040;-85
2023/12/03 04:32:27;;;;;;;331.02;42.45;;;;;;;;;;4996616;28;20036;-86
2023/12/03 04:35:13;;;;;;;467.85;50.92;;;;;;;;;;5010702;28;20072;-86
2023/12/03 04:37:58;;;;;;;465.08;50.67;;;;;;;;;;5011075;28;20095;-86
2023/12/03 04:40:42;;;;;;;459.92;51.83;;;;;;;;;;5009783;28;20547;-86
2023/12/03 04:43:27;;;;;;;408.25;46.45;;;;;;;;;;5010537;28;20451;-85
2023/12/03 04:46:12;;;;;;;230.52;33.80;;;;;;;;;;5011328;28;20049;-86
2023/12/03 04:48:57;;;;;;;503.27;57.72;;;;;;;;;;5010678;28;20089;-86
2023/12/03 04:51:41;;;;;;;265.40;38.70;;;;;;;;;;5011049;28;20044;-85
2023/12/03 04:54:26;;;;;;;303.83;42.25;;;;;;;;;;5010255;28;20450;-86
2023/12/03 04:57:11;;;;;;;481.52;55.60;;;;;;;;;;5010485;28;20092;-86
2023/12/03 04:59:55;;;;;;;268.10;41.70;;;;;;;;;;5010865;28;20145;-85
2023/12/03 05:02:40;;;;;;;325.95;43.25;;;;;;;;;;5011085;28;20049;-85
2023/12/03 05:05:24;;;;;;;448.50;52.63;;;;;;;;;;4990861;28;20045;-86
2023/12/03 05:08:09;;;;;;;407.15;52.80;;;;;;;;;;5008945;28;20053;-86
2023/12/03 05:10:53;;;;;;;478.92;58.17;;;;;;;;;;4990409;28;20493;-86
2023/12/03 05:13:37;;;;;;;422.25;53.63;;;;;;;;;;4997506;28;20037;-86
2023/12/03 05:16:22;;;;;;;394.63;51.92;;;;;;;;;;5010180;28;20041;-85
2023/12/03 05:19:06;;;;;;;436.55;57.50;;;;;;;;;;5010882;28;20121;-86
2023/12/03 05:21:51;;;;;;;466.63;59.88;;;;;;;;;;5010441;28;20494;-86
2023/12/03 05:24:36;;;;;;;478.75;57.67;;;;;;;;;;5011069;28;20160;-86
2023/12/03 05:27:20;;;;;;;384.38;50.40;;;;;;;;;;5010212;28;20053;-85
2023/12/03 05:30:05;;;;;;;289.65;45.20;;;;;;;;;;5010497;28;20111;-86
2023/12/03 05:32:50;;;;;;;413.85;53.03;;;;;;;;;;5010522;28;20040;-85
2023/12/03 05:35:34;;;;;;;361.00;47.15;;;;;;;;;;4996329;28;20569;-86
2023/12/03 05:38:19;;;;;;;381.80;46.33;;;;;;;;;;5014639;28;20079;-86
2023/12/03 05:41:03;;;;;;;419.00;48.20;;;;;;;;;;4998001;28;20092;-86
2023/12/03 05:43:48;;;;;;;374.15;45.80;;;;;;;;;;4993487;28;20041;-86
2023/12/03 05:46:33;;;;;;;312.10;41.60;;;;;;;;;;5001699;28;20064;-86
2023/12/03 05:49:17;;;;;;;387.30;42.50;;;;;;;;;;5014092;28;20064;-86
2023/12/03 05:52:02;;;;;;;378.95;46.15;;;;;;;;;;5013931;28;20092;-87
2023/12/03 05:54:46;;;;;;;429.55;44.40;;;;;;;;;;5013890;28;20113;-84
2023/12/03 05:57:31;;;;;;;308.35;38.03;;;;;;;;;;5014115;28;20096;-85
2023/12/03 06:00:16;;;;;;;299.83;36.63;;;;;;;;;;5014278;28;20056;-85
2023/12/03 06:03:00;;;;;;;299.08;38.03;;;;;;;;;;5012468;28;20037;-86
2023/12/03 06:05:45;;;;;;;335.23;40.95;;;;;;;;;;5014183;28;20113;-86
2023/12/03 06:08:30;;;;;;;275.92;33.97;;;;;;;;;;4993491;28;20157;-86
2023/12/03 06:11:14;;;;;;;309.80;37.78;;;;;;;;;;5009038;28;20048;-86
2023/12/03 06:13:59;;;;;;;247.70;33.10;;;;;;;;;;5013437;28;20489;-86
2023/12/03 06:16:44;;;;;;;221.45;32.72;;;;;;;;;;5013641;28;20037;-86
2023/12/03 06:19:28;;;;;;;170.68;29.20;;;;;;;;;;5012902;28;20041;-86
2023/12/03 06:22:13;;;;;;;205.80;28.98;;;;;;;;;;5013483;28;20049;-86
2023/12/03 06:24:57;;;;;;;241.13;32.03;;;;;;;;;;5013002;28;20084;-86
2023/12/03 06:27:42;;;;;;;189.38;29.15;;;;;;;;;;5013667;28;20150;-85
2023/12/03 06:30:26;;;;;;;268.77;34.78;;;;;;;;;;5012084;28;20043;-86
2023/12/03 06:33:11;;;;;;;279.75;33.60;;;;;;;;;;5003268;28;20135;-86
2023/12/03 06:35:56;;;;;;;313.17;35.75;;;;;;;;;;5011848;28;20040;-86
2023/12/03 06:38:40;;;;;;;266.67;31.20;;;;;;;;;;5012520;28;20103;-86
2023/12/03 06:41:25;;;;;;;197.75;29.67;;;;;;;;;;5013492;28;20133;-87
2023/12/03 06:44:09;;;;;;;245.63;33.88;;;;;;;;;;5012650;28;20501;-87
2023/12/03 06:46:54;;;;;;;320.65;35.78;;;;;;;;;;5012636;28;20656;-85
2023/12/03 06:49:40;;;;;;;279.33;33.70;;;;;;;;;;5012838;28;20061;-86
2023/12/03 06:52:25;;;;;;;262.05;33.22;;;;;;;;;;5012982;28;20045;-86
2023/12/03 06:55:10;;;;;;;261.80;32.80;;;;;;;;;;5012695;28;20045;-86
2023/12/03 06:57:54;;;;;;;262.27;32.92;;;;;;;;;;5012769;28;20123;-85
2023/12/03 07:00:39;;;;;;;320.88;37.60;;;;;;;;;;5013528;28;20779;-86
2023/12/03 07:03:23;;;;;;;287.33;35.97;;;;;;;;;;5012079;28;20060;-86
2023/12/03 07:06:08;;;;;;;245.27;32.40;;;;;;;;;;5012299;28;20121;-86
2023/12/03 07:08:53;;;;;;;211.60;30.60;;;;;;;;;;5012742;28;20139;-87
2023/12/03 07:11:37;;;;;;;206.73;30.30;;;;;;;;;;5012713;28;20486;-86
2023/12/03 07:14:22;;;;;;;241.35;31.60;;;;;;;;;;5011733;28;20049;-87
2023/12/03 07:17:06;;;;;;;197.05;31.98;;;;;;;;;;5011032;28;20091;-86
2023/12/03 07:19:51;;;;;;;204.52;29.92;;;;;;;;;;5011628;28;20540;-87
2023/12/03 07:22:35;;;;;;;149.00;26.50;;;;;;;;;;5011661;28;20045;-86
2023/12/03 07:25:20;;;;;;;136.93;25.70;;;;;;;;;;5011832;28;20068;-86
2023/12/03 07:28:05;;;;;;;140.32;24.80;;;;;;;;;;5011886;28;20057;-87
2023/12/03 07:30:49;;;;;;;164.65;27.63;;;;;;;;;;5007784;28;20088;-86
2023/12/03 07:33:34;;;;;;;153.60;26.00;;;;;;;;;;5005194;28;20160;-86
2023/12/03 07:36:19;;;;;;;176.90;27.58;;;;;;;;;;5010567;28;20092;-87
2023/12/03 07:39:03;;;;;;;162.35;26.42;;;;;;;;;;5011405;28;20121;-85
2023/12/03 07:41:51;;;;;;;178.15;27.55;;;;;;;;;;5012330;28;20398;-87
2023/12/03 07:44:36;;;;;;;129.45;23.10;;;;;;;;;;5012334;28;20046;-87
2023/12/03 07:47:21;;;;;;;124.72;23.48;;;;;;;;;;5010636;28;20120;-86
2023/12/03 07:50:06;;;;;;;134.80;23.40;;;;;;;;;;5011409;28;20056;-86
2023/12/03 07:52:50;;;;;;;124.57;23.58;;;;;;;;;;5011993;28;20045;-86
2023/12/03 07:55:35;;;;;;;139.18;22.38;;;;;;;;;;5011146;28;20413;-86
2023/12/03 07:58:20;;;;;;;131.13;21.83;;;;;;;;;;5011435;28;20096;-87
2023/12/03 08:01:05;;;;;;;123.32;22.83;;;;;;;;;;5011015;28;20181;-86
2023/12/03 08:03:49;;;;;;;146.40;25.60;;;;;;;;;;5011132;28;20477;-87
2023/12/03 08:06:34;;;;;;;168.13;25.50;;;;;;;;;;4996047;28;20100;-87
2023/12/03 08:09:18;;;;;;;134.00;26.60;;;;;;;;;;5011415;28;20060;-86
2023/12/03 08:12:03;;;;;;;123.43;23.33;;;;;;;;;;5011719;28;20127;-85
2023/12/03 08:14:48;;;;;;;148.02;27.40;;;;;;;;;;5011698;28;20099;-87
2023/12/03 08:17:32;;;;;;;134.15;25.83;;;;;;;;;;5010751;28;20398;-87
2023/12/03 08:20:17;;;;;;;120.78;22.50;;;;;;;;;;5011166;28;20040;-86
2023/12/03 08:23:01;;;;;;;152.23;26.08;;;;;;;;;;5010556;28;20044;-86
2023/12/03 08:25:46;;;;;;;127.45;24.25;;;;;;;;;;5011706;28;20091;-87
2023/12/03 08:28:31;;;;;;;121.25;24.42;;;;;;;;;;5011275;28;20131;-86
2023/12/03 08:31:15;;;;;;;103.05;25.55;;;;;;;;;;5002065;28;20402;-86
2023/12/03 08:34:00;;;;;;;111.78;24.88;;;;;;;;;;5007240;28;20481;-85
2023/12/03 08:36:45;;;;;;;106.93;23.85;;;;;;;;;;5011657;28;20057;-86
2023/12/03 08:39:30;;;;;;;110.78;24.33;;;;;;;;;;5009942;28;20492;-86
2023/12/03 08:42:17;;;;;;;106.20;22.73;;;;;;;;;;5010900;28;20117;-86
2023/12/03 08:45:01;;;;;;;92.93;24.17;;;;;;;;;;5011548;28;20537;-86
2023/12/03 08:47:46;;;;;;;101.38;23.67;;;;;;;;;;5010321;28;20049;-87
2023/12/03 08:50:31;;;;;;;96.47;24.40;;;;;;;;;;5009835;28;20112;-86
2023/12/03 08:53:16;;;;;;;83.68;22.17;;;;;;;;;;5010899;28;20085;-85
2023/12/03 08:56:01;;;;;;;79.82;21.67;;;;;;;;;;5010264;28;20053;-86
2023/12/03 08:58:45;;;;;;;84.50;22.27;;;;;;;;;;5011897;28;20057;-86
2023/12/03 09:01:30;;;;;;;87.60;22.75;;;;;;;;;;5010594;28;20631;-86
2023/12/03 09:04:14;;;;;;;90.72;23.52;;;;;;;;;;5010889;28;20088;-87
2023/12/03 09:07:00;;;;;;;83.53;23.98;;;;;;;;;;4999566;28;20048;-87
2023/12/03 09:09:45;;;;;;;85.47;23.55;;;;;;;;;;5010051;28;20041;-86
2023/12/03 09:12:30;;;;;;;69.82;20.85;;;;;;;;;;5013467;28;20644;-86
2023/12/03 09:15:14;;;;;;;67.90;20.48;;;;;;;;;;5014595;28;20056;-86
2023/12/03 09:17:59;;;;;;;63.05;21.80;;;;;;;;;;5014684;28;20049;-85
2023/12/03 09:20:43;;;;;;;67.97;22.27;;;;;;;;;;5014052;28;20110;-86
2023/12/03 09:23:28;;;;;;;70.68;22.58;;;;;;;;;;5014342;28;20487;-86
2023/12/03 09:26:13;;;;;;;66.15;21.92;;;;;;;;;;5013576;28;20064;-85
2023/12/03 09:28:58;;;;;;;61.13;22.10;;;;;;;;;;5013775;28;20119;-86
2023/12/03 09:31:42;;;;;;;73.03;23.63;;;;;;;;;;5002207;28;20121;-85
2023/12/03 09:34:26;;;;;;;57.70;22.20;;;;;;;;;;4980388;28;20071;-86
2023/12/03 09:37:11;;;;;;;68.80;25.70;;;;;;;;;;5009463;28;20457;-86
2023/12/03 09:39:57;;;;;;;68.13;24.65;;;;;;;;;;5014540;28;20049;-86
2023/12/03 09:42:44;;;;;;;62.55;23.88;;;;;;;;;;5014386;28;20037;-86
2023/12/03 09:45:29;;;;;;;68.30;25.08;;;;;;;;;;5014026;28;20037;-86
2023/12/03 09:48:14;;;;;;;61.53;26.55;;;;;;;;;;5014200;28;20065;-85
2023/12/03 09:50:59;;;;;;;62.30;24.73;;;;;;;;;;5014175;28;20065;-86
2023/12/03 09:53:45;;;;;;;56.53;23.42;;;;;;;;;;5014447;28;20040;-85
2023/12/03 09:56:30;;;;;;;54.05;22.98;;;;;;;;;;5013641;28;20089;-86
2023/12/03 09:59:15;;;;;;;56.15;24.50;;;;;;;;;;5012888;28;20512;-85
2023/12/03 10:02:00;;;;;;;55.53;25.23;;;;;;;;;;4993728;28;20089;-86
2023/12/03 10:04:45;;;;;;;59.45;24.70;;;;;;;;;;5011935;28;20036;-86
2023/12/03 10:07:30;;;;;;;59.53;24.92;;;;;;;;;;5012525;28;20092;-86
2023/12/03 10:10:18;;;;;;;55.28;23.60;;;;;;;;;;5014070;28;20060;-86
2023/12/03 10:13:04;;;;;;;56.42;25.83;;;;;;;;;;5013829;28;20041;-85
2023/12/03 10:15:48;;;;;;;47.17;22.35;;;;;;;;;;5013988;28;20037;-86
2023/12/03 10:18:33;;;;;;;55.58;24.92;;;;;;;;;;5013149;28;20044;-86
2023/12/03 10:21:17;;;;;;;46.28;23.52;;;;;;;;;;5013784;28;20492;-85
2023/12/03 10:24:03;;;;;;;50.70;24.90;;;;;;;;;;5013608;28;20040;-86
2023/12/03 10:26:55;;;;;;;50.35;23.10;;;;;;;;;;5013388;28;20088;-86
2023/12/03 10:29:40;;;;;;;48.63;22.73;;;;;;;;;;5012283;28;20041;-86
2023/12/03 10:32:27;;;;;;;47.40;22.88;;;;;;;;;;4998248;28;20048;-86
2023/12/03 10:35:12;;;;;;;50.50;24.27;;;;;;;;;;5013457;28;20088;-86
2023/12/03 10:37:56;;;;;;;48.85;24.17;;;;;;;;;;5012548;28;20084;-85
2023/12/03 10:40:41;;;;;;;47.88;24.48;;;;;;;;;;5012836;28;20088;-86
2023/12/03 10:43:25;;;;;;;53.42;25.52;;;;;;;;;;5011927;28;20073;-86
2023/12/03 10:46:13;;;;;;;50.53;26.15;;;;;;;;;;5013170;28;20045;-86
2023/12/03 10:48:58;;;;;;;45.47;23.92;;;;;;;;;;5012120;28;20064;-85
2023/12/03 10:51:44;;;;;;;48.28;25.17;;;;;;;;;;4981218;28;20045;-86
2023/12/03 10:54:29;;;;;;;48.15;25.80;;;;;;;;;;5009035;28;20041;-86
2023/12/03 10:57:13;;;;;;;49.03;25.45;;;;;;;;;;5013208;28;20052;-85
2023/12/03 11:00:03;;;;;;;49.40;25.10;;;;;;;;;;5013131;28;20037;-86
2023/12/03 11:02:54;;;;;;;44.47;23.15;;;;;;;;;;5011587;28;20048;-85
2023/12/03 11:05:42;;;;;;;46.53;24.85;;;;;;;;;;5012559;28;20402;-85
2023/12/03 11:08:28;;;;;;;54.88;27.63;;;;;;;;;;5012425;28;20445;-85
2023/12/03 11:11:14;;;;;;;55.70;27.75;;;;;;;;;;5012688;28;20049;-85
2023/12/03 11:13:59;;;;;;;47.20;25.20;;;;;;;;;;5012941;28;20449;-85
2023/12/03 11:17:00;;;;;;;48.17;24.15;;;;;;;;;;5012127;28;20033;-85
2023/12/03 11:19:47;;;;;;;44.50;23.77;;;;;;;;;;5012095;28;20368;-85
2023/12/03 11:22:38;;;;;;;42.30;23.40;;;;;;;;;;5012185;28;20044;-85
2023/12/03 11:25:28;;;;;;;43.67;22.67;;;;;;;;;;5012367;28;20478;-86
2023/12/03 11:28:13;;;;;;;44.97;23.23;;;;;;;;;;5012384;28;20124;-85
2023/12/03 11:30:58;;;;;;;41.55;20.67;;;;;;;;;;5006874;28;20178;-85
2023/12/03 11:33:56;;;;;;;39.63;21.27;;;;;;;;;;5004450;28;20142;-85
2023/12/03 11:36:47;;;;;;;41.50;20.33;;;;;;;;;;5012381;28;20040;-85
2023/12/03 11:39:33;;;;;;;41.42;21.02;;;;;;;;;;5011968;28;20536;-85
2023/12/03 11:42:19;;;;;;;37.88;19.88;;;;;;;;;;5012212;28;20044;-85
2023/12/03 11:45:21;;;;;;;36.90;19.38;;;;;;;;;;5012425;28;20076;-85
2023/12/03 11:48:10;;;;;;;38.75;21.27;;;;;;;;;;5011249;28;20406;-85
2023/12/03 11:50:56;;;;;;;36.75;18.80;;;;;;;;;;5011085;28;20061;-85
2023/12/03 11:53:54;;;;;;;41.22;20.17;;;;;;;;;;5010808;28;20065;-85
2023/12/03 11:56:38;;;;;;;37.45;18.92;;;;;;;;;;5010515;28;20474;-85
2023/12/03 11:59:23;;;;;;;38.92;20.17;;;;;;;;;;5010958;28;20080;-85
2023/12/03 12:02:07;;;;;;;35.30;19.42;;;;;;;;;;5011079;28;20036;-85
2023/12/03 12:04:52;;;;;;;33.13;16.13;;;;;;;;;;5010253;28;20119;-85
2023/12/03 12:07:36;;;;;;;36.42;18.67;;;;;;;;;;5010452;28;20112;-85
2023/12/03 12:10:21;;;;;;;38.10;19.13;;;;;;;;;;5011922;28;20068;-85
2023/12/03 12:13:06;;;;;;;39.35;19.98;;;;;;;;;;5010695;28;20556;-85
2023/12/03 12:15:50;;;;;;;38.40;18.95;;;;;;;;;;4990912;28;20069;-85
2023/12/03 12:18:37;;;;;;;36.85;18.67;;;;;;;;;;5010816;28;20076;-85
2023/12/03 12:21:21;;;;;;;40.70;20.23;;;;;;;;;;5011605;28;20401;-85
2023/12/03 12:24:06;;;;;;;45.00;20.20;;;;;;;;;;5011778;28;20040;-85
2023/12/03 12:26:51;;;;;;;40.20;20.90;;;;;;;;;;5011027;28;20041;-85
2023/12/03 12:29:36;;;;;;;42.30;20.02;;;;;;;;;;5011225;28;20045;-84
2023/12/03 12:32:20;;;;;;;43.92;19.70;;;;;;;;;;4997755;28;20099;-85
2023/12/03 12:35:05;;;;;;;45.55;22.05;;;;;;;;;;5011708;28;20048;-85
2023/12/03 12:38:03;;;;;;;42.22;20.67;;;;;;;;;;5011295;28;20048;-85
2023/12/03 12:40:54;;;;;;;44.45;21.67;;;;;;;;;;5010879;28;20052;-85
2023/12/03 12:43:58;;;;;;;42.70;21.02;;;;;;;;;;5010136;28;20088;-85
2023/12/03 12:46:52;;;;;;;45.42;20.85;;;;;;;;;;5014159;28;20045;-85
2023/12/03 12:49:42;;;;;;;49.08;21.85;;;;;;;;;;5013564;28;20112;-85
2023/12/03 12:52:27;;;;;;;46.33;22.08;;;;;;;;;;4995939;28;20045;-85
2023/12/03 12:55:25;;;;;;;51.55;22.95;;;;;;;;;;5014463;28;20405;-85
2023/12/03 12:58:10;;;;;;;52.15;25.02;;;;;;;;;;5015228;28;20087;-85
2023/12/03 13:00:55;;;;;;;45.38;23.15;;;;;;;;;;5014855;28;20048;-85
2023/12/03 13:03:42;;;;;;;45.10;22.40;;;;;;;;;;5014850;28;20470;-85
2023/12/03 13:06:27;;;;;;;45.78;23.08;;;;;;;;;;5014111;28;20037;-85
2023/12/03 13:09:14;;;;;;;51.00;23.52;;;;;;;;;;5014121;28;20041;-85
2023/12/03 13:11:59;;;;;;;49.78;25.35;;;;;;;;;;5013637;28;20305;-85
2023/12/03 13:14:43;;;;;;;46.25;23.45;;;;;;;;;;5014444;28;20608;-84
2023/12/03 13:17:28;;;;;;;44.55;21.20;;;;;;;;;;5014114;28;20041;-84
2023/12/03 13:20:13;;;;;;;41.33;22.95;;;;;;;;;;5014837;28;20045;-84
2023/12/03 13:22:57;;;;;;;47.80;21.77;;;;;;;;;;5014525;28;20551;-84
2023/12/03 13:25:42;;;;;;;47.70;23.92;;;;;;;;;;5014432;28;20094;-85
2023/12/03 13:28:27;;;;;;;44.80;23.60;;;;;;;;;;5014575;28;20048;-84
2023/12/03 13:31:12;;;;;;;50.30;23.85;;;;;;;;;;5006287;28;20049;-84
2023/12/03 13:33:57;;;;;;;48.40;23.73;;;;;;;;;;5010498;28;20037;-84
2023/12/03 13:36:41;;;;;;;46.60;23.58;;;;;;;;;;5014409;28;20048;-84
2023/12/03 13:39:26;;;;;;;49.33;23.00;;;;;;;;;;5014437;28;20107;-85
2023/12/03 13:42:10;;;;;;;46.13;23.00;;;;;;;;;;5013823;28;20049;-85
2023/12/03 13:44:55;;;;;;;51.53;23.38;;;;;;;;;;5001623;28;20045;-85
2023/12/03 13:47:40;;;;;;;51.22;23.35;;;;;;;;;;5014212;28;20048;-85
2023/12/03 13:50:24;;;;;;;50.22;23.98;;;;;;;;;;5014444;28;20137;-85
2023/12/03 13:53:09;;;;;;;53.13;25.13;;;;;;;;;;5013478;28;20402;-84
2023/12/03 13:55:53;;;;;;;48.17;23.73;;;;;;;;;;5013715;28;20068;-84
2023/12/03 13:58:38;;;;;;;47.65;23.80;;;;;;;;;;5013494;28;20049;-84
2023/12/03 14:01:23;;;;;;;45.47;21.52;;;;;;;;;;5014131;28;20040;-85
2023/12/03 14:04:08;;;;;;;48.88;23.67;;;;;;;;;;5012616;28;20104;-84
2023/12/03 14:06:53;;;;;;;49.53;24.25;;;;;;;;;;5012861;28;20037;-84
2023/12/03 14:09:37;;;;;;;47.88;25.30;;;;;;;;;;5014009;28;20087;-84
2023/12/03 14:12:22;;;;;;;48.58;23.02;;;;;;;;;;5013023;28;20049;-85
2023/12/03 14:15:07;;;;;;;45.83;23.85;;;;;;;;;;5013384;28;20319;-84
2023/12/03 14:17:52;;;;;;;43.78;20.90;;;;;;;;;;5013672;28;20116;-84
2023/12/03 14:20:37;;;;;;;48.95;21.13;;;;;;;;;;5013976;28;20842;-84
2023/12/03 14:23:21;;;;;;;42.58;21.92;;;;;;;;;;5013720;28;20041;-84
2023/12/03 14:26:06;;;;;;;37.95;18.70;;;;;;;;;;5012214;28;20045;-84
2023/12/03 14:28:51;;;;;;;42.20;19.60;;;;;;;;;;5013052;28;20045;-85
2023/12/03 14:31:36;;;;;;;37.30;19.08;;;;;;;;;;5003006;28;20049;-85
2023/12/03 14:34:21;;;;;;;42.60;19.58;;;;;;;;;;5012985;28;20394;-85
2023/12/03 14:37:05;;;;;;;35.33;16.73;;;;;;;;;;5012020;28;20112;-85
2023/12/03 14:39:50;;;;;;;37.67;16.73;;;;;;;;;;5013218;28;20494;-85
2023/12/03 14:42:34;;;;;;;34.10;17.45;;;;;;;;;;5012330;28;20441;-84
2023/12/03 14:45:18;;;;;;;33.67;17.00;;;;;;;;;;5012455;28;20049;-85
2023/12/03 14:48:03;;;;;;;39.55;17.55;;;;;;;;;;5011898;28;20041;-84
2023/12/03 14:50:48;;;;;;;38.17;18.23;;;;;;;;;;5012182;28;20119;-85
2023/12/03 14:53:32;;;;;;;36.10;17.17;;;;;;;;;;5013315;28;20040;-84
2023/12/03 14:56:25;;;;;;;40.10;18.08;;;;;;;;;;5012034;28;20449;-85
2023/12/03 14:59:10;;;;;;;40.92;18.95;;;;;;;;;;5012739;28;20045;-85
2023/12/03 15:01:55;;;;;;;40.20;19.42;;;;;;;;;;5012671;28;20064;-84
2023/12/03 15:04:39;;;;;;;35.47;17.10;;;;;;;;;;5011990;28;20045;-84
2023/12/03 15:07:24;;;;;;;35.20;16.77;;;;;;;;;;5013048;28;20465;-84
2023/12/03 15:10:09;;;;;;;35.10;17.17;;;;;;;;;;5012514;28;20069;-85
2023/12/03 15:12:53;;;;;;;33.38;17.23;;;;;;;;;;5011505;28;20088;-84
2023/12/03 15:15:38;;;;;;;34.85;16.70;;;;;;;;;;5012998;28;20068;-85
2023/12/03 15:18:22;;;;;;;32.25;16.52;;;;;;;;;;5012821;28;20115;-85
2023/12/03 15:21:07;;;;;;;38.10;18.02;;;;;;;;;;5012258;28;20084;-85
2023/12/03 15:23:52;;;;;;;41.50;17.75;;;;;;;;;;5011838;28;20032;-84
2023/12/03 15:26:36;;;;;;;35.28;16.48;;;;;;;;;;5011652;28;20501;-84
2023/12/03 15:29:21;;;;;;;36.05;16.33;;;;;;;;;;5012394;28;20053;-84
2023/12/03 15:32:06;;;;;;;35.65;16.25;;;;;;;;;;4997933;28;20045;-84
2023/12/03 15:34:50;;;;;;;35.92;18.00;;;;;;;;;;5012674;28;20099;-84
2023/12/03 15:37:35;;;;;;;33.85;17.45;;;;;;;;;;5011246;28;20072;-84
2023/12/03 15:40:19;;;;;;;36.35;16.77;;;;;;;;;;5010950;28;20405;-85
2023/12/03 15:43:04;;;;;;;33.17;16.88;;;;;;;;;;5010923;28;20033;-84
2023/12/03 15:45:49;;;;;;;36.40;17.70;;;;;;;;;;5012146;28;20040;-84
2023/12/03 15:48:34;;;;;;;37.67;16.73;;;;;;;;;;5012113;28;20406;-84
2023/12/03 15:51:18;;;;;;;38.28;17.95;;;;;;;;;;5011705;28;20099;-85
2023/12/03 15:54:03;;;;;;;34.53;16.90;;;;;;;;;;5011793;28;20068;-85